createdAt,value
2018-10-19T00:02:41.269Z,26.30
2018-10-19T00:07:38.626Z,25.40
2018-10-19T00:12:36.120Z,31.73
2018-10-19T00:17:33.494Z,26.17
2018-10-19T00:22:30.935Z,22.77
2018-10-19T00:27:29.675Z,26.97
2018-10-19T00:32:27.035Z,30.13
2018-10-19T00:37:24.408Z,27.20
2018-10-19T00:42:21.766Z,28.00
2018-10-19T00:47:19.151Z,30.03
2018-10-19T00:52:16.550Z,24.90
2018-10-19T00:57:16.240Z,24.67
2018-10-19T01:02:13.645Z,27.47
2018-10-19T01:07:11.014Z,27.17
2018-10-19T01:12:08.409Z,32.70
2018-10-19T01:17:07.321Z,39.67
2018-10-19T01:22:05.758Z,44.93
2018-10-19T01:27:04.953Z,32.10
2018-10-19T01:32:02.474Z,37.00
2018-10-19T01:37:03.355Z,36.73
2018-10-19T01:42:00.746Z,29.90
2018-10-19T01:46:58.165Z,34.13
2018-10-19T01:51:55.597Z,31.90
2018-10-19T01:57:00.185Z,37.23
2018-10-19T02:01:57.690Z,36.50
2018-10-19T02:06:55.099Z,31.70
2018-10-19T02:11:52.470Z,36.80
2018-10-19T02:16:49.887Z,37.70
2018-10-19T02:21:47.248Z,32.77
2018-10-19T02:32:02.371Z,39.27
2018-10-19T02:36:59.757Z,37.27
2018-10-19T02:41:57.151Z,38.93
2018-10-19T02:46:54.525Z,33.37
2018-10-19T02:51:51.932Z,37.50
2018-10-19T02:56:58.698Z,26.17
2018-10-19T03:01:56.175Z,40.40
2018-10-19T03:06:53.553Z,35.20
2018-10-19T03:11:50.924Z,35.90
2018-10-19T03:16:48.364Z,39.10
2018-10-19T03:21:45.715Z,37.60
2018-10-19T03:26:50.839Z,33.83
2018-10-19T03:31:48.291Z,30.80
2018-10-19T03:36:45.663Z,34.53
2018-10-19T03:41:43.054Z,39.77
2018-10-19T03:46:40.418Z,44.80
2018-10-19T03:51:37.793Z,37.27
2018-10-19T03:56:38.464Z,39.60
2018-10-19T04:01:35.942Z,47.27
2018-10-19T04:06:33.307Z,37.87
2018-10-19T04:11:30.717Z,37.20
2018-10-19T04:16:28.075Z,31.07
2018-10-19T04:21:25.422Z,31.60
2018-10-19T04:26:22.803Z,46.63
2018-10-19T04:31:20.186Z,35.77
2018-10-19T04:36:17.555Z,46.80
2018-10-19T04:41:14.995Z,40.07
2018-10-19T04:46:12.357Z,33.87
2018-10-19T04:51:09.877Z,46.43
2018-10-19T04:56:07.195Z,41.30
2018-10-19T05:01:04.966Z,47.17
2018-10-19T05:06:02.457Z,56.13
2018-10-19T05:11:01.328Z,44.27
2018-10-19T05:15:58.823Z,43.87
2018-10-19T05:20:56.216Z,39.63
2018-10-19T05:25:53.644Z,40.53
2018-10-19T05:30:51.052Z,39.07
2018-10-19T05:35:48.482Z,41.07
2018-10-19T05:40:45.879Z,43.77
2018-10-19T05:45:43.313Z,37.40
2018-10-19T05:50:40.707Z,40.67
2018-10-19T05:55:38.101Z,40.63
2018-10-19T06:00:35.519Z,39.50
2018-10-19T06:05:32.946Z,41.17
2018-10-19T06:10:30.335Z,50.37
2018-10-19T06:15:27.706Z,41.13
2018-10-19T06:20:25.099Z,43.90
2018-10-19T06:25:22.490Z,46.53
2018-10-19T06:30:19.908Z,40.73
2018-10-19T06:35:17.326Z,36.20
2018-10-19T06:40:14.744Z,43.90
2018-10-19T06:45:12.150Z,37.60
2018-10-19T06:50:11.094Z,30.53
2018-10-19T06:55:10.210Z,32.90
2018-10-19T07:00:07.712Z,35.00
2018-10-19T07:05:05.540Z,24.13
2018-10-19T07:10:05.717Z,22.90
2018-10-19T07:15:06.948Z,26.47
2018-10-19T07:20:15.495Z,17.37
2018-10-19T07:25:14.623Z,20.80
2018-10-19T07:30:16.543Z,18.10
2018-10-19T07:35:15.946Z,17.90
2018-10-19T07:40:19.996Z,16.13
2018-10-19T07:45:22.345Z,16.93
2018-10-19T07:50:21.243Z,14.93
2018-10-19T07:55:22.623Z,13.63
2018-10-19T08:00:24.008Z,23.10
2018-10-19T08:05:21.491Z,15.80
2018-10-19T08:10:18.883Z,13.50
2018-10-19T08:15:16.285Z,19.17
2018-10-19T08:20:13.726Z,16.17
2018-10-19T08:25:11.077Z,14.10
2018-10-19T08:30:14.137Z,12.40
2018-10-19T08:35:16.356Z,13.90
2018-10-19T08:40:19.187Z,22.70
2018-10-19T08:45:22.519Z,17.93
2018-10-19T08:50:22.638Z,11.90
2018-10-19T08:55:20.091Z,20.47
2018-10-19T09:00:17.728Z,13.43
2018-10-19T09:05:15.130Z,13.67
2018-10-19T09:10:19.598Z,23.10
2018-10-19T09:15:18.534Z,23.03
2018-10-19T09:20:16.094Z,9.83
2018-10-19T09:25:13.506Z,8.93
2018-10-19T09:30:10.986Z,11.30
2018-10-19T09:35:08.473Z,16.07
2018-10-19T09:40:05.975Z,11.23
2018-10-19T09:45:03.564Z,8.73
2018-10-19T09:50:00.951Z,10.60
2018-10-19T09:54:58.346Z,14.03
2018-10-19T09:59:55.791Z,11.10
2018-10-19T10:04:53.227Z,12.57
2018-10-19T10:09:50.623Z,12.67
2018-10-19T10:14:48.158Z,8.17
2018-10-19T10:19:53.082Z,12.53
2018-10-19T10:24:54.558Z,10.00
2018-10-19T10:29:56.256Z,15.83
2018-10-19T10:34:57.433Z,14.73
2018-10-19T10:40:00.811Z,17.00
2018-10-19T10:45:05.684Z,19.50
2018-10-19T10:50:06.360Z,14.07
2018-10-19T10:55:10.992Z,13.63
2018-10-19T11:00:11.155Z,17.23
2018-10-19T11:05:12.620Z,10.87
2018-10-19T11:10:15.459Z,14.00
2018-10-19T11:15:14.355Z,15.30
2018-10-19T11:20:14.709Z,14.60
2018-10-19T11:25:16.518Z,16.37
2018-10-19T11:30:16.644Z,17.97
2018-10-19T11:35:17.940Z,16.80
2018-10-19T11:40:35.851Z,13.93
2018-10-19T11:45:38.313Z,14.80
2018-10-19T11:50:39.373Z,16.70
2018-10-19T11:55:40.269Z,13.40
2018-10-19T12:00:43.525Z,15.93
2018-10-19T12:05:45.458Z,15.67
2018-10-19T12:10:45.699Z,14.87
2018-10-19T12:15:46.823Z,15.57
2018-10-19T12:20:49.739Z,12.47
2018-10-19T12:25:47.299Z,18.20
2018-10-19T12:30:47.594Z,13.30
2018-10-19T12:35:46.597Z,16.43
2018-10-19T12:40:49.956Z,13.77
2018-10-19T12:46:28.165Z,13.50
2018-10-19T12:51:29.115Z,18.53
2018-10-19T12:56:30.266Z,19.20
2018-10-19T13:01:41.197Z,18.90
2018-10-19T13:06:41.687Z,17.33
2018-10-19T13:11:51.390Z,18.90
2018-10-19T13:16:51.717Z,19.87
2018-10-19T13:21:51.445Z,18.23
2018-10-19T13:26:52.325Z,22.73
2018-10-19T13:31:58.897Z,11.40
2018-10-19T13:37:01.230Z,17.83
2018-10-19T13:42:06.078Z,13.93
2018-10-19T13:47:11.663Z,15.13
2018-10-19T13:57:18.147Z,15.93
2018-10-19T14:02:25.328Z,15.10
2018-10-19T14:07:24.968Z,20.77
2018-10-19T14:12:23.968Z,12.60
2018-10-19T14:17:29.568Z,11.93
2018-10-19T14:22:30.844Z,13.50
2018-10-19T14:27:32.524Z,16.17
2018-10-19T14:32:31.716Z,20.83
2018-10-19T14:37:35.117Z,21.80
2018-10-19T14:42:40.856Z,15.03
2018-10-19T14:47:41.795Z,13.60
2018-10-19T14:52:39.335Z,17.47
2018-10-19T14:57:36.829Z,13.73
2018-10-19T15:02:34.234Z,13.63
2018-10-19T15:07:33.309Z,14.13
2018-10-19T15:12:35.565Z,17.50
2018-10-19T15:17:37.022Z,15.53
2018-10-19T15:22:38.156Z,15.70
2018-10-19T15:27:42.586Z,11.30
2018-10-19T15:32:44.002Z,12.43
2018-10-19T15:37:48.683Z,17.40
2018-10-19T15:42:46.127Z,14.03
2018-10-19T15:47:43.548Z,12.70
2018-10-19T15:52:40.934Z,10.77
2018-10-19T15:57:50.681Z,12.50
2018-10-19T16:02:48.219Z,13.03
2018-10-19T16:07:46.914Z,16.93
2018-10-19T16:12:46.016Z,11.20
2018-10-19T16:17:45.971Z,10.70
2018-10-19T16:22:43.498Z,12.70
2018-10-19T16:27:40.966Z,17.43
2018-10-19T16:32:39.576Z,5.43
2018-10-19T16:37:37.635Z,13.07
2018-10-19T16:42:35.156Z,13.27
2018-10-19T16:47:33.389Z,9.17
2018-10-19T16:52:32.924Z,10.33
2018-10-19T16:57:33.819Z,14.40
2018-10-19T17:02:32.232Z,15.37
2018-10-19T17:07:33.778Z,9.70
2018-10-19T17:12:32.027Z,20.40
2018-10-19T17:17:29.936Z,8.07
2018-10-19T17:22:27.315Z,9.53
2018-10-19T17:27:25.883Z,25.50
2018-10-19T17:32:23.261Z,14.37
2018-10-19T17:37:20.672Z,10.10
2018-10-19T17:42:18.057Z,13.70
2018-10-19T17:47:15.552Z,9.70
2018-10-19T17:52:12.907Z,10.10
2018-10-19T17:57:12.483Z,15.43
2018-10-19T18:02:09.982Z,28.30
2018-10-19T18:07:07.590Z,13.43
2018-10-19T18:12:05.074Z,12.00
2018-10-19T18:17:02.539Z,13.00
2018-10-19T18:22:00.102Z,11.43
2018-10-19T18:27:09.084Z,11.10
2018-10-19T18:32:06.656Z,14.07
2018-10-19T18:37:04.256Z,11.67
2018-10-19T18:42:01.654Z,15.23
2018-10-19T18:46:59.094Z,11.17
2018-10-19T18:51:56.447Z,11.27
2018-10-19T18:56:53.840Z,17.47
2018-10-19T19:01:51.278Z,10.30
2018-10-19T19:06:48.658Z,7.37
2018-10-19T19:11:46.039Z,10.07
2018-10-19T19:16:43.467Z,8.33
2018-10-19T19:21:40.832Z,9.70
2018-10-19T19:26:38.249Z,11.50
2018-10-19T19:31:35.638Z,11.10
2018-10-19T19:36:33.006Z,10.90
2018-10-19T19:41:35.954Z,14.83
2018-10-19T19:46:33.350Z,13.30
2018-10-19T19:51:30.727Z,17.87
2018-10-19T19:56:28.102Z,6.30
2018-10-19T20:01:25.494Z,11.07
2018-10-19T20:06:23.747Z,10.80
2018-10-19T20:11:21.078Z,12.70
2018-10-19T20:16:18.457Z,9.07
2018-10-19T20:21:15.843Z,23.63
2018-10-19T20:26:13.328Z,24.10
2018-10-19T20:31:10.670Z,19.50
2018-10-19T20:36:08.207Z,9.43
2018-10-19T20:41:05.672Z,13.87
2018-10-19T20:46:03.022Z,17.67
2018-10-19T20:51:00.431Z,10.13
2018-10-19T20:55:57.884Z,13.20
2018-10-19T21:00:55.480Z,6.40
2018-10-19T21:05:52.766Z,14.57
2018-10-19T21:10:50.134Z,9.20
2018-10-19T21:15:47.510Z,9.37
2018-10-19T21:20:44.886Z,14.70
2018-10-19T21:25:42.275Z,9.33
2018-10-19T21:30:39.671Z,5.40
2018-10-19T21:35:37.057Z,7.90
2018-10-19T21:40:34.491Z,9.30
2018-10-19T21:45:31.851Z,7.87
2018-10-19T21:50:29.219Z,20.23
2018-10-19T21:55:26.594Z,13.50
2018-10-19T22:00:24.003Z,14.60
2018-10-19T22:05:21.394Z,17.53
2018-10-19T22:10:22.270Z,9.67
2018-10-19T22:15:19.724Z,9.70
2018-10-19T22:20:17.078Z,11.60
2018-10-19T22:25:14.652Z,11.67
2018-10-19T22:30:11.843Z,8.60
2018-10-19T22:35:09.316Z,15.63
2018-10-19T22:40:10.372Z,10.97
2018-10-19T22:45:07.773Z,20.67
2018-10-19T22:50:05.162Z,10.73
2018-10-19T22:55:02.665Z,10.73
2018-10-19T23:00:00.039Z,16.27
2018-10-19T23:04:57.468Z,10.20
2018-10-19T23:09:56.084Z,12.70
2018-10-19T23:14:53.488Z,20.23
2018-10-19T23:19:50.851Z,5.97
2018-10-19T23:24:48.239Z,10.17
2018-10-19T23:29:45.651Z,12.83
2018-10-19T23:34:43.100Z,9.83
2018-10-19T23:39:40.485Z,16.60
2018-10-19T23:44:37.871Z,11.87
2018-10-19T23:49:35.270Z,16.67
2018-10-19T23:54:32.645Z,18.07
2018-10-19T23:59:30.019Z,11.30
